Time;durP1;ratioP1;P1;durP2;ratioP2;P2;SDS_P1;SDS_P2;PMS_P1;PMS_P2;Temp;Humidity;BMP_temperature;BMP_pressure;BME280_temperature;BME280_humidity;BME280_pressure;Samples;Min_cycle;Max_cycle;Signal;HPM_P1;HPM_P2
2022/03/09 00:02:17;;;;;;;;;;;;;;;18.52;34.77;100383.53;4422241;32;20528;-71
2022/03/09 00:04:43;;;;;;;;;;;;;;;18.50;34.74;100377.56;4425342;32;20004;-71
2022/03/09 00:07:08;;;;;;;;;;;;;;;18.75;34.34;100369.00;4425187;32;19996;-71
2022/03/09 00:09:34;;;;;;;;;;;;;;;18.78;34.27;100370.84;4420769;32;20023;-71
2022/03/09 00:12:00;;;;;;;;;;;;;;;18.77;34.37;100372.16;4424304;32;19979;-71
2022/03/09 00:14:26;;;;;;;;;;;;;;;18.50;34.66;100364.09;4422742;32;20383;-72
2022/03/09 00:16:51;;;;;;;;;;;;;;;18.52;34.89;100357.91;4423656;32;20303;-71
2022/03/09 00:19:17;;;;;;;;;;;;;;;18.31;35.14;100356.38;4422421;32;20343;-72
2022/03/09 00:21:42;;;;;;;;;;;;;;;18.31;35.39;100353.50;4421861;32;19979;-72
2022/03/09 00:24:08;;;;;;;;;;;;;;;18.43;35.12;100352.34;4423116;32;20013;-72
2022/03/09 00:26:34;;;;;;;;;;;;;;;18.16;35.85;100356.44;4422811;32;20029;-71
2022/03/09 00:28:59;;;;;;;;;;;;;;;17.98;36.10;100350.25;4423608;32;19993;-71
2022/03/09 00:31:25;;;;;;;;;;;;;;;18.21;35.81;100361.41;4422450;32;19987;-71
2022/03/09 00:33:50;;;;;;;;;;;;;;;18.12;35.91;100360.78;4424669;32;20150;-71
2022/03/09 00:36:16;;;;;;;;;;;;;;;18.48;35.60;100357.34;4423980;32;19961;-71
2022/03/09 00:38:41;;;;;;;;;;;;;;;18.50;35.43;100364.09;4422700;32;20044;-71
2022/03/09 00:41:07;;;;;;;;;;;;;;;18.63;35.33;100363.72;4423597;32;19968;-71
2022/03/09 00:43:32;;;;;;;;;;;;;;;18.43;35.63;100369.44;4422043;32;20359;-71
2022/03/09 00:45:58;;;;;;;;;;;;;;;18.42;35.56;100371.53;4423405;32;20339;-71
2022/03/09 00:48:24;;;;;;;;;;;;;;;18.33;35.92;100377.34;4422380;32;19999;-71
2022/03/09 00:50:49;;;;;;;;;;;;;;;18.47;35.61;100372.87;4424268;32;19999;-71
2022/03/09 00:53:15;;;;;;;;;;;;;;;18.21;35.95;100380.56;4423292;32;19997;-71
2022/03/09 00:55:40;;;;;;;;;;;;;;;18.03;36.32;100378.78;4424998;32;19953;-72
2022/03/09 00:58:08;;;;;;;;;;;;;;;18.11;36.20;100379.94;4420245;32;21074;-70
2022/03/09 01:00:33;;;;;;;;;;;;;;;18.29;36.15;100381.72;4422368;32;19993;-70
2022/03/09 01:02:59;;;;;;;;;;;;;;;18.14;36.25;100381.00;4422461;32;19953;-71
2022/03/09 01:05:25;;;;;;;;;;;;;;;18.05;36.69;100372.59;4423456;32;19993;-70
2022/03/09 01:07:50;;;;;;;;;;;;;;;18.36;36.24;100378.41;4423611;32;19967;-72
2022/03/09 01:10:16;;;;;;;;;;;;;;;18.31;36.37;100374.22;4422197;32;19980;-72
2022/03/09 01:12:41;;;;;;;;;;;;;;;18.21;36.49;100366.31;4423192;32;20040;-72
2022/03/09 01:15:08;;;;;;;;;;;;;;;18.53;36.10;100377.34;4423426;32;19961;-72
2022/03/09 01:17:34;;;;;;;;;;;;;;;18.47;36.23;100376.50;4423097;32;20103;-72
2022/03/09 01:20:00;;;;;;;;;;;;;;;18.54;36.22;100380.97;4423533;32;19985;-72
2022/03/09 01:22:26;;;;;;;;;;;;;;;18.53;36.10;100382.28;4421790;32;20014;-72
2022/03/09 01:24:51;;;;;;;;;;;;;;;18.45;36.23;100387.62;4420827;32;20000;-72
2022/03/09 01:27:16;;;;;;;;;;;;;;;18.60;35.95;100376.13;4423401;32;19993;-72
2022/03/09 01:29:42;;;;;;;;;;;;;;;18.62;35.79;100373.56;4420711;32;19993;-72
2022/03/09 01:32:08;;;;;;;;;;;;;;;18.39;36.09;100366.06;4418731;32;19989;-72
2022/03/09 01:34:33;;;;;;;;;;;;;;;18.47;35.96;100372.87;4423797;32;20030;-70
2022/03/09 01:36:59;;;;;;;;;;;;;;;18.35;36.22;100368.31;4423245;32;20422;-72
2022/03/09 01:39:24;;;;;;;;;;;;;;;18.55;36.05;100368.28;4420964;32;20398;-72
2022/03/09 01:41:50;;;;;;;;;;;;;;;17.92;37.21;100366.50;4421701;32;20000;-72
2022/03/09 01:44:17;;;;;;;;;;;;;;;18.18;36.64;100370.16;4415722;32;20394;-72
2022/03/09 01:46:45;;;;;;;;;;;;;;;17.37;38.24;100375.75;4423306;32;20448;-72
2022/03/09 01:49:11;;;;;;;;;;;;;;;17.85;37.37;100382.72;4421726;32;19953;-72
2022/03/09 01:51:39;;;;;;;;;;;;;;;17.97;37.16;100395.03;4423703;32;19969;-72
2022/03/09 01:54:04;;;;;;;;;;;;;;;17.99;37.42;100391.69;4422622;32;20054;-71
2022/03/09 01:56:30;;;;;;;;;;;;;;;17.92;37.43;100386.41;4418778;32;20025;-72
2022/03/09 01:58:56;;;;;;;;;;;;;;;17.81;37.64;100389.91;4420468;32;20302;-72
2022/03/09 02:01:22;;;;;;;;;;;;;;;17.36;38.62;100379.09;4421632;32;20035;-72
2022/03/09 02:03:47;;;;;;;;;;;;;;;17.39;38.57;100378.12;4422960;32;20220;-72
2022/03/09 02:06:13;;;;;;;;;;;;;;;17.78;37.99;100380.28;4421836;32;20002;-72
2022/03/09 02:11:25;;;;;;;;;;;;;;;17.09;39.27;100363.16;4421755;32;20018;-72
2022/03/09 02:13:51;;;;;;;;;;;;;;;16.60;40.29;100360.25;4423019;32;19989;-72
2022/03/09 02:16:17;;;;;;;;;;;;;;;16.17;41.37;100352.41;4422372;32;19967;-72
2022/03/09 02:18:42;;;;;;;;;;;;;;;15.94;41.99;100356.09;4420107;32;19997;-72
2022/03/09 02:21:10;;;;;;;;;;;;;;;16.19;41.48;100344.22;4419863;32;19953;-72
2022/03/09 02:23:36;;;;;;;;;;;;;;;15.64;42.73;100337.38;4423809;32;20220;-72
2022/03/09 02:26:02;;;;;;;;;;;;;;;15.42;43.34;100326.34;4422320;32;20053;-72
2022/03/09 02:28:27;;;;;;;;;;;;;;;15.38;43.57;100316.44;4421854;32;19993;-72
2022/03/09 02:30:55;;;;;;;;;;;;;;;15.24;43.98;100315.06;4421487;32;19953;-72
2022/03/09 02:33:21;;;;;;;;;;;;;;;15.32;43.76;100321.19;4421237;32;20030;-72
2022/03/09 02:35:47;;;;;;;;;;;;;;;15.57;43.31;100321.53;4422459;32;20006;-72
2022/03/09 02:38:13;;;;;;;;;;;;;;;15.82;42.81;100325.91;4419864;32;20300;-72
2022/03/09 02:40:38;;;;;;;;;;;;;;;15.67;43.29;100330.75;4420938;32;19957;-72
2022/03/09 02:43:04;;;;;;;;;;;;;;;15.87;42.83;100337.38;4419742;32;20102;-72
2022/03/09 02:45:30;;;;;;;;;;;;;;;16.28;42.12;100332.78;4421524;32;19954;-72
2022/03/09 02:47:56;;;;;;;;;;;;;;;16.38;41.80;100330.66;4422671;32;20032;-72
2022/03/09 02:50:22;;;;;;;;;;;;;;;16.61;41.17;100329.78;4419552;32;20514;-72
2022/03/09 02:52:47;;;;;;;;;;;;;;;16.65;41.18;100324.69;4420321;32;19961;-72
2022/03/09 02:55:13;;;;;;;;;;;;;;;16.96;40.80;100330.62;4423165;32;20520;-72
2022/03/09 02:57:39;;;;;;;;;;;;;;;17.00;40.76;100334.09;4420529;32;20191;-72
2022/03/09 03:00:07;;;;;;;;;;;;;;;17.00;40.79;100332.00;4418566;32;20662;-72
2022/03/09 03:02:33;;;;;;;;;;;;;;;17.02;41.06;100340.84;4420677;32;19961;-72
2022/03/09 03:04:59;;;;;;;;;;;;;;;16.78;41.69;100328.78;4421041;32;20038;-72
2022/03/09 03:07:26;;;;;;;;;;;;;;;17.03;41.45;100336.72;4422528;32;19965;-71
2022/03/09 03:09:53;;;;;;;;;;;;;;;17.10;40.83;100341.22;4420632;32;20292;-72
2022/03/09 03:12:19;;;;;;;;;;;;;;;17.15;41.29;100337.69;4421798;32;20002;-71
2022/03/09 03:14:44;;;;;;;;;;;;;;;17.33;41.02;100345.97;4422062;32;20069;-72
2022/03/09 03:17:10;;;;;;;;;;;;;;;17.16;41.47;100350.62;4420360;32;20584;-72
2022/03/09 03:19:35;;;;;;;;;;;;;;;17.42;41.09;100355.16;4420453;32;19988;-72
2022/03/09 03:22:01;;;;;;;;;;;;;;;17.57;40.56;100347.41;4419877;32;20008;-72
2022/03/09 03:24:29;;;;;;;;;;;;;;;17.63;40.88;100345.41;4420427;32;20006;-72
2022/03/09 03:26:55;;;;;;;;;;;;;;;17.36;41.65;100353.50;4420451;32;19950;-71
2022/03/09 03:29:20;;;;;;;;;;;;;;;17.51;41.62;100357.12;4421799;32;19994;-71
2022/03/09 03:31:45;;;;;;;;;;;;;;;17.37;42.09;100357.94;4420443;32;19965;-72
2022/03/09 03:34:11;;;;;;;;;;;;;;;17.36;42.15;100347.81;4419420;32;19964;-71
2022/03/09 03:36:36;;;;;;;;;;;;;;;17.55;41.54;100347.09;4422500;32;20001;-71
2022/03/09 03:39:02;;;;;;;;;;;;;;;17.66;41.64;100337.94;4420587;32;20658;-71
2022/03/09 03:41:28;;;;;;;;;;;;;;;17.61;41.84;100342.28;4418580;32;19953;-71
2022/03/09 03:43:53;;;;;;;;;;;;;;;17.48;42.28;100341.84;4421105;32;20374;-71
2022/03/09 03:46:19;;;;;;;;;;;;;;;17.92;41.30;100333.88;4420484;32;19953;-71
2022/03/09 03:48:44;;;;;;;;;;;;;;;17.85;41.54;100331.47;4420343;32;19989;-71
2022/03/09 03:51:10;;;;;;;;;;;;;;;17.97;41.21;100338.09;4421085;32;20633;-71
2022/03/09 03:53:35;;;;;;;;;;;;;;;17.92;41.52;100331.03;4420433;32;19989;-71
2022/03/09 03:56:01;;;;;;;;;;;;;;;17.57;42.18;100332.37;4420797;32;19960;-71
2022/03/09 03:58:28;;;;;;;;;;;;;;;17.78;41.58;100325.44;4422416;32;20005;-71
2022/03/09 04:00:53;;;;;;;;;;;;;;;17.64;42.07;100309.19;4419203;32;20417;-71
2022/03/09 04:03:19;;;;;;;;;;;;;;;17.73;41.73;100321.22;4421249;32;20274;-71
2022/03/09 04:05:44;;;;;;;;;;;;;;;17.81;41.44;100313.84;4423987;32;19989;-71
2022/03/09 04:08:10;;;;;;;;;;;;;;;17.33;42.50;100309.78;4425258;32;20035;-71
2022/03/09 04:10:35;;;;;;;;;;;;;;;17.59;41.83;100313.56;4421929;32;20006;-71
2022/03/09 04:13:04;;;;;;;;;;;;;;;17.29;42.45;100326.28;4424664;32;20016;-71
2022/03/09 04:15:31;;;;;;;;;;;;;;;17.37;42.41;100320.97;4426583;32;19998;-71
2022/03/09 04:17:56;;;;;;;;;;;;;;;16.97;43.32;100323.69;4423383;32;19957;-71
2022/03/09 04:20:22;;;;;;;;;;;;;;;17.26;42.86;100324.41;4421746;32;19980;-71
2022/03/09 04:22:48;;;;;;;;;;;;;;;17.65;41.94;100331.44;4425434;32;20023;-71
2022/03/09 04:25:13;;;;;;;;;;;;;;;17.57;42.03;100330.31;4423649;32;20406;-71
2022/03/09 04:27:39;;;;;;;;;;;;;;;17.19;42.89;100330.53;4423595;32;19949;-71
2022/03/09 04:30:05;;;;;;;;;;;;;;;17.21;43.03;100333.62;4423600;32;19981;-71
2022/03/09 04:32:31;;;;;;;;;;;;;;;17.26;42.85;100338.63;4424124;32;19961;-71
2022/03/09 04:34:56;;;;;;;;;;;;;;;17.52;42.45;100336.72;4422027;32;19961;-71
2022/03/09 04:37:22;;;;;;;;;;;;;;;17.37;42.72;100338.03;4425205;32;20422;-71
2022/03/09 04:39:47;;;;;;;;;;;;;;;17.35;42.85;100338.53;4423180;32;20320;-71
2022/03/09 04:42:13;;;;;;;;;;;;;;;17.38;42.77;100348.91;4416467;32;20446;-71
2022/03/09 04:44:38;;;;;;;;;;;;;;;17.07;43.58;100345.03;4425655;32;20008;-71
2022/03/09 04:47:04;;;;;;;;;;;;;;;17.11;43.33;100345.63;4423586;32;19976;-71
2022/03/09 04:49:29;;;;;;;;;;;;;;;17.31;42.42;100343.59;4422370;32;20360;-71
2022/03/09 04:51:55;;;;;;;;;;;;;;;17.53;42.30;100337.50;4423653;32;20302;-71
2022/03/09 04:54:20;;;;;;;;;;;;;;;17.58;42.28;100346.09;4424353;32;19964;-71
2022/03/09 04:56:46;;;;;;;;;;;;;;;17.43;42.64;100348.22;4422209;32;19953;-71
2022/03/09 04:59:13;;;;;;;;;;;;;;;17.63;42.44;100350.31;4421934;32;19997;-71
2022/03/09 05:01:38;;;;;;;;;;;;;;;17.15;43.14;100343.38;4422166;32;20000;-71
2022/03/09 05:04:04;;;;;;;;;;;;;;;16.96;43.57;100351.34;4424649;32;20015;-71
2022/03/09 05:06:29;;;;;;;;;;;;;;;17.00;43.50;100345.47;4422695;32;19990;-71
2022/03/09 05:08:55;;;;;;;;;;;;;;;17.08;43.33;100350.25;4424555;32;20474;-71
2022/03/09 05:11:21;;;;;;;;;;;;;;;16.87;43.79;100351.44;4423185;32;19998;-71
2022/03/09 05:13:46;;;;;;;;;;;;;;;16.85;43.99;100345.47;4423035;32;19957;-71
2022/03/09 05:16:12;;;;;;;;;;;;;;;16.21;45.34;100349.41;4423333;32;19972;-71
2022/03/09 05:18:40;;;;;;;;;;;;;;;16.52;44.70;100355.44;4420753;32;21037;-72
2022/03/09 05:21:07;;;;;;;;;;;;;;;16.19;45.61;100343.41;4423114;32;19953;-72
2022/03/09 05:23:32;;;;;;;;;;;;;;;16.48;44.35;100343.50;4423797;32;19964;-72
2022/03/09 05:25:57;;;;;;;;;;;;;;;16.43;45.19;100344.16;4421822;32;20005;-72
2022/03/09 05:28:23;;;;;;;;;;;;;;;16.42;45.12;100336.91;4421673;32;19941;-71
2022/03/09 05:30:49;;;;;;;;;;;;;;;16.53;44.98;100345.66;4421047;32;20022;-71
2022/03/09 05:33:14;;;;;;;;;;;;;;;16.18;45.74;100341.84;4422650;32;20096;-71
2022/03/09 05:35:40;;;;;;;;;;;;;;;16.05;45.86;100350.66;4421544;32;19950;-71
2022/03/09 05:38:05;;;;;;;;;;;;;;;16.14;46.11;100342.03;4421661;32;19968;-71
2022/03/09 05:40:31;;;;;;;;;;;;;;;16.19;46.01;100347.06;4422679;32;19966;-71
2022/03/09 05:42:56;;;;;;;;;;;;;;;16.31;45.87;100348.03;4424128;32;19961;-71
2022/03/09 05:45:22;;;;;;;;;;;;;;;16.17;46.25;100349.59;4425697;32;19955;-71
2022/03/09 05:47:48;;;;;;;;;;;;;;;16.40;45.56;100360.13;4420019;32;19953;-72
2022/03/09 05:50:14;;;;;;;;;;;;;;;16.51;45.48;100348.22;4421443;32;19988;-72
2022/03/09 05:52:39;;;;;;;;;;;;;;;16.53;45.43;100345.66;4414438;32;20332;-72
2022/03/09 05:55:05;;;;;;;;;;;;;;;16.41;45.66;100338.94;4419820;32;20370;-71
2022/03/09 05:57:30;;;;;;;;;;;;;;;16.27;46.08;100347.47;4421719;32;20035;-71
2022/03/09 05:59:56;;;;;;;;;;;;;;;16.42;45.80;100345.44;4423529;32;19953;-71
2022/03/09 06:02:23;;;;;;;;;;;;;;;16.63;44.97;100347.91;4410942;32;19957;-71
2022/03/09 06:04:48;;;;;;;;;;;;;;;16.56;45.50;100351.16;4420068;32;19989;-71
2022/03/09 06:07:14;;;;;;;;;;;;;;;16.85;45.05;100365.38;4421309;32;19950;-72
2022/03/09 06:09:39;;;;;;;;;;;;;;;16.92;44.74;100358.50;4423234;32;20494;-72
2022/03/09 06:12:05;;;;;;;;;;;;;;;16.88;44.98;100363.59;4423016;32;20002;-72
2022/03/09 06:14:30;;;;;;;;;;;;;;;16.49;45.66;100362.91;4421597;32;20005;-72
2022/03/09 06:16:56;;;;;;;;;;;;;;;16.25;46.32;100353.62;4421291;32;19997;-72
2022/03/09 06:19:22;;;;;;;;;;;;;;;16.09;46.71;100358.97;4422177;32;20401;-72
2022/03/09 06:21:47;;;;;;;;;;;;;;;16.21;46.43;100360.75;4424098;32;20429;-71
2022/03/09 06:24:16;;;;;;;;;;;;;;;16.04;46.60;100353.97;4423931;32;19984;-71
2022/03/09 06:26:43;;;;;;;;;;;;;;;15.95;47.00;100364.12;4414158;32;20365;-71
2022/03/09 06:29:10;;;;;;;;;;;;;;;15.93;47.21;100363.03;4420853;32;19993;-71
2022/03/09 06:31:35;;;;;;;;;;;;;;;15.92;47.11;100367.13;4409779;32;20407;-71
2022/03/09 06:34:01;;;;;;;;;;;;;;;15.89;47.39;100370.94;4421585;32;20016;-71
2022/03/09 06:36:26;;;;;;;;;;;;;;;15.50;48.17;100381.44;4422776;32;19961;-72
2022/03/09 06:38:52;;;;;;;;;;;;;;;15.95;47.34;100369.78;4423788;32;20240;-72
2022/03/09 06:41:18;;;;;;;;;;;;;;;16.01;47.38;100374.81;4421715;32;20019;-72
2022/03/09 06:43:44;;;;;;;;;;;;;;;16.00;47.42;100376.84;4419540;32;19994;-71
2022/03/09 06:46:09;;;;;;;;;;;;;;;16.17;46.97;100372.28;4421928;32;20299;-72
2022/03/09 06:48:34;;;;;;;;;;;;;;;16.24;46.93;100374.78;4421956;32;20330;-72
2022/03/09 06:51:00;;;;;;;;;;;;;;;16.41;46.48;100378.72;4420416;32;20310;-71
2022/03/09 06:53:25;;;;;;;;;;;;;;;15.89;47.56;100373.78;4421541;32;19953;-72
2022/03/09 06:55:51;;;;;;;;;;;;;;;16.41;46.21;100372.28;4421301;32;20205;-72
2022/03/09 06:58:17;;;;;;;;;;;;;;;16.69;45.66;100376.44;4418166;32;20231;-72
2022/03/09 07:00:42;;;;;;;;;;;;;;;16.54;46.09;100384.16;4408961;32;20520;-72
2022/03/09 07:03:09;;;;;;;;;;;;;;;16.49;46.22;100374.25;4422207;32;20442;-72
2022/03/09 07:05:34;;;;;;;;;;;;;;;16.75;45.27;100378.09;4420731;32;20036;-72
2022/03/09 07:08:00;;;;;;;;;;;;;;;16.38;46.32;100373.25;4422777;32;19953;-72
2022/03/09 07:10:26;;;;;;;;;;;;;;;16.48;46.18;100369.88;4422001;32;19961;-72
2022/03/09 07:12:52;;;;;;;;;;;;;;;16.26;46.66;100374.28;4419863;32;19973;-72
2022/03/09 07:15:18;;;;;;;;;;;;;;;16.31;46.52;100377.22;4418585;32;19998;-72
2022/03/09 07:17:45;;;;;;;;;;;;;;;16.31;46.72;100384.97;4418442;32;20001;-72
2022/03/09 07:20:11;;;;;;;;;;;;;;;16.65;45.93;100388.00;4417160;32;20316;-72
2022/03/09 07:22:36;;;;;;;;;;;;;;;16.12;46.95;100377.88;4421642;32;20009;-72
2022/03/09 07:25:02;;;;;;;;;;;;;;;15.84;47.31;100391.50;4418827;32;19971;-72
2022/03/09 07:27:27;;;;;;;;;;;;;;;16.23;46.79;100387.38;4416391;32;20339;-72
2022/03/09 07:29:53;;;;;;;;;;;;;;;16.21;46.99;100387.09;4415471;32;19964;-72
2022/03/09 07:32:18;;;;;;;;;;;;;;;16.40;46.45;100385.69;4422735;32;20340;-72
2022/03/09 07:34:44;;;;;;;;;;;;;;;16.91;45.43;100391.81;4418125;32;20291;-72
2022/03/09 07:37:09;;;;;;;;;;;;;;;16.98;45.17;100393.47;4406221;32;19965;-72
2022/03/09 07:39:35;;;;;;;;;;;;;;;17.14;45.00;100392.97;4415997;32;20003;-72
2022/03/09 07:42:01;;;;;;;;;;;;;;;17.22;44.21;100394.94;4418784;32;20353;-71
2022/03/09 07:44:26;;;;;;;;;;;;;;;17.26;44.36;100389.81;4413624;32;19989;-71
2022/03/09 07:46:52;;;;;;;;;;;;;;;17.10;44.80;100410.25;4410282;32;20316;-71
2022/03/09 07:49:18;;;;;;;;;;;;;;;17.24;44.47;100394.41;4407361;32;19961;-71
2022/03/09 07:51:44;;;;;;;;;;;;;;;17.56;43.88;100399.09;4418430;32;20017;-71
2022/03/09 07:54:09;;;;;;;;;;;;;;;17.58;43.86;100402.25;4414234;32;19980;-71
2022/03/09 07:56:35;;;;;;;;;;;;;;;17.43;44.20;100398.66;4416931;32;20263;-71
2022/03/09 07:59:02;;;;;;;;;;;;;;;17.39;44.15;100392.34;4409765;32;19973;-71
2022/03/09 08:01:28;;;;;;;;;;;;;;;17.63;43.90;100402.31;4409162;32;20009;-72
2022/03/09 08:03:54;;;;;;;;;;;;;;;17.35;44.37;100403.94;4406640;32;19985;-72
2022/03/09 08:06:20;;;;;;;;;;;;;;;17.46;44.18;100401.28;4407772;32;20063;-73
2022/03/09 08:08:46;;;;;;;;;;;;;;;17.65;43.68;100402.59;4403167;32;20016;-73
2022/03/09 08:11:11;;;;;;;;;;;;;;;17.60;43.89;100408.22;4400292;32;20038;-73
2022/03/09 08:13:37;;;;;;;;;;;;;;;17.68;43.61;100409.38;4405893;32;20390;-73
2022/03/09 08:16:03;;;;;;;;;;;;;;;17.71;43.52;100412.00;4399246;32;20012;-73
2022/03/09 08:18:29;;;;;;;;;;;;;;;18.12;42.35;100407.13;4403790;32;20533;-73
2022/03/09 08:20:57;;;;;;;;;;;;;;;17.17;44.44;100409.84;4398830;32;20038;-73
2022/03/09 08:23:26;;;;;;;;;;;;;;;17.11;44.84;100417.50;4404470;32;20050;-73
2022/03/09 08:25:53;;;;;;;;;;;;;;;17.51;43.86;100414.03;4409457;32;20004;-73
2022/03/09 08:28:20;;;;;;;;;;;;;;;17.85;42.64;100416.06;4402994;32;20460;-73
2022/03/09 08:30:46;;;;;;;;;;;;;;;17.80;43.13;100411.13;4404827;32;20105;-73
2022/03/09 08:33:14;;;;;;;;;;;;;;;17.69;43.17;100403.19;4402661;32;20695;-73
2022/03/09 08:35:41;;;;;;;;;;;;;;;17.35;43.87;100403.94;4408103;32;19997;-73
2022/03/09 08:38:06;;;;;;;;;;;;;;;17.56;43.35;100413.34;4401199;32;20652;-73
2022/03/09 08:40:32;;;;;;;;;;;;;;;17.54;43.38;100413.03;4402392;32;20319;-73
2022/03/09 08:42:58;;;;;;;;;;;;;;;17.88;42.54;100412.25;4408607;32;19996;-73
2022/03/09 08:45:23;;;;;;;;;;;;;;;17.61;42.63;100401.22;4405573;32;20589;-73
2022/03/09 08:47:49;;;;;;;;;;;;;;;18.37;41.86;100405.63;4404337;32;19981;-73
2022/03/09 08:50:15;;;;;;;;;;;;;;;18.09;42.47;100401.62;4407373;32;19989;-72
2022/03/09 08:52:41;;;;;;;;;;;;;;;18.66;41.37;100408.31;4407445;32;20001;-74
2022/03/09 08:55:07;;;;;;;;;;;;;;;18.74;40.54;100406.56;4404547;32;20393;-73
2022/03/09 08:57:33;;;;;;;;;;;;;;;18.77;40.36;100389.25;4408879;32;20113;-71
2022/03/09 09:00:01;;;;;;;;;;;;;;;19.19;39.65;100394.31;4407239;32;20536;-72
2022/03/09 09:02:27;;;;;;;;;;;;;;;19.31;39.46;100404.56;4408370;32;20342;-73
2022/03/09 09:04:52;;;;;;;;;;;;;;;19.42;38.70;100396.84;4409294;32;20046;-74
2022/03/09 09:07:18;;;;;;;;;;;;;;;19.75;37.90;100410.56;4406972;32;20019;-73
2022/03/09 09:09:44;;;;;;;;;;;;;;;19.58;37.75;100392.56;4406059;32;20012;-74
2022/03/09 09:12:11;;;;;;;;;;;;;;;20.10;37.05;100388.19;4403756;32;19997;-73
2022/03/09 09:14:37;;;;;;;;;;;;;;;19.25;37.63;100395.12;4409453;32;20252;-74
2022/03/09 09:17:03;;;;;;;;;;;;;;;19.46;37.66;100402.34;4409158;32;20042;-74
2022/03/09 09:19:29;;;;;;;;;;;;;;;19.84;36.64;100398.94;4409082;32;19974;-73
2022/03/09 09:21:54;;;;;;;;;;;;;;;20.19;36.30;100407.22;4409005;32;20164;-74
2022/03/09 09:24:20;;;;;;;;;;;;;;;20.22;36.01;100400.47;4408045;32;19976;-74
2022/03/09 09:26:46;;;;;;;;;;;;;;;20.01;36.01;100410.47;4407688;32;19998;-74
2022/03/09 09:29:11;;;;;;;;;;;;;;;20.26;35.51;100403.84;4404477;32;20423;-74
2022/03/09 09:31:37;;;;;;;;;;;;;;;19.84;36.38;100407.50;4403980;32;19997;-73
2022/03/09 09:34:02;;;;;;;;;;;;;;;20.11;36.13;100389.75;4407238;32;20409;-74
2022/03/09 09:36:28;;;;;;;;;;;;;;;19.41;36.96;100405.91;4390053;32;20631;-73
2022/03/09 09:38:54;;;;;;;;;;;;;;;18.64;38.52;100399.47;4406706;32;20016;-74
2022/03/09 09:41:24;;;;;;;;;;;;;;;19.05;37.95;100396.00;4407111;32;20551;-74
2022/03/09 09:43:50;;;;;;;;;;;;;;;19.94;36.56;100393.81;4407992;32;20326;-74
2022/03/09 09:46:16;;;;;;;;;;;;;;;20.55;35.24;100400.56;4404566;32;19989;-73
2022/03/09 09:48:43;;;;;;;;;;;;;;;20.72;34.63;100402.19;4406098;32;20455;-74
2022/03/09 09:51:09;;;;;;;;;;;;;;;21.05;34.11;100424.38;4406755;32;19992;-73
2022/03/09 09:53:35;;;;;;;;;;;;;;;20.68;34.20;100415.94;4407350;32;20124;-74
2022/03/09 09:56:01;;;;;;;;;;;;;;;21.32;33.26;100418.66;4406792;32;20012;-72
2022/03/09 09:58:28;;;;;;;;;;;;;;;21.19;33.29;100434.78;4408397;32;19957;-74
2022/03/09 10:00:54;;;;;;;;;;;;;;;21.39;32.88;100403.81;4405555;32;19961;-74
2022/03/09 10:03:20;;;;;;;;;;;;;;;21.04;33.31;100412.12;4407794;32;20105;-71
2022/03/09 10:05:46;;;;;;;;;;;;;;;21.76;32.50;100403.56;4406625;32;20008;-73
2022/03/09 10:08:14;;;;;;;;;;;;;;;22.11;31.92;100415.16;4407654;32;20019;-73
2022/03/09 10:13:17;;;;;;;;;;;;;;;21.76;32.26;100403.56;3936578;32;15855358;-73
2022/03/09 10:15:44;;;;;;;;;;;;;;;21.39;32.82;100400.94;4413843;32;20004;-73
2022/03/09 10:18:18;;;;;;;;;;;;;;;21.49;32.80;100395.75;4413447;32;20004;-75
2022/03/09 10:20:44;;;;;;;;;;;;;;;21.73;32.27;100403.78;4407108;32;20000;-75
2022/03/09 10:23:11;;;;;;;;;;;;;;;22.48;31.34;100404.06;4409870;32;20631;-74
2022/03/09 10:25:38;;;;;;;;;;;;;;;22.93;30.25;100413.22;4415112;32;20077;-75
2022/03/09 10:28:08;;;;;;;;;;;;;;;22.79;30.22;100412.25;4400280;32;20464;-75
2022/03/09 10:30:36;;;;;;;;;;;;;;;22.82;29.99;100419.03;4410387;32;20013;-75
2022/03/09 10:33:03;;;;;;;;;;;;;;;22.53;29.80;100417.63;4414914;32;20490;-75
2022/03/09 10:40:46;;;;;;;;;;;;;;;22.08;30.67;100406.69;3938445;32;15722972;-74
2022/03/09 10:46:06;;;;;;;;;;;;;;;22.12;30.77;100401.62;3936603;32;15723774;-74
2022/03/09 10:48:53;;;;;;;;;;;;;;;22.12;30.77;100401.62;4404091;32;20485;-73
2022/03/09 10:51:35;;;;;;;;;;;;;;;22.23;30.50;100402.34;4404575;32;20001;-74
2022/03/09 10:54:03;;;;;;;;;;;;;;;22.30;30.41;100404.66;4406693;32;20269;-74
2022/03/09 10:56:29;;;;;;;;;;;;;;;22.27;30.45;100390.63;4407171;32;20031;-75
2022/03/09 10:58:55;;;;;;;;;;;;;;;21.93;30.90;100387.09;4409005;32;19993;-75
2022/03/09 11:01:23;;;;;;;;;;;;;;;21.63;31.14;100381.12;4404495;32;20424;-75
2022/03/09 11:03:48;;;;;;;;;;;;;;;20.85;32.55;100382.44;4406516;32;19990;-75
2022/03/09 11:06:14;;;;;;;;;;;;;;;20.97;32.91;100389.78;4405576;32;20011;-75
2022/03/09 11:08:41;;;;;;;;;;;;;;;21.40;32.10;100378.84;4405818;32;20021;-75
2022/03/09 11:11:08;;;;;;;;;;;;;;;21.48;31.62;100368.44;4406035;32;19988;-75
2022/03/09 11:13:35;;;;;;;;;;;;;;;21.60;31.40;100378.56;4408138;32;19976;-74
2022/03/09 11:16:01;;;;;;;;;;;;;;;21.95;30.83;100377.97;4409836;32;20023;-73
2022/03/09 11:18:32;;;;;;;;;;;;;;;22.35;29.81;100394.47;4413635;32;20027;-80
2022/03/09 11:21:00;;;;;;;;;;;;;;;22.80;29.32;100378.63;4424190;32;20024;-79
2022/03/09 11:23:27;;;;;;;;;;;;;;;23.02;29.04;100378.47;4425225;32;19998;-77
2022/03/09 11:26:01;;;;;;;;;;;;;;;22.74;28.78;100375.78;4417345;32;19997;-78
2022/03/09 11:28:30;;;;;;;;;;;;;;;21.95;29.75;100352.19;4425205;32;20002;-79
2022/03/09 11:31:02;;;;;;;;;;;;;;;23.03;28.59;100382.87;4418162;32;19973;-78
2022/03/09 11:33:35;;;;;;;;;;;;;;;23.39;28.17;100390.19;4420671;32;20979;-77
2022/03/09 11:36:02;;;;;;;;;;;;;;;23.44;27.91;100375.00;4410523;32;21070;-74
2022/03/09 11:43:49;;;;;;;;;;;;;;;25.00;25.95;100387.72;3927079;32;15729270;-72
2022/03/09 11:46:16;;;;;;;;;;;;;;;25.06;25.73;100378.97;4384057;32;20001;-73
2022/03/09 11:48:50;;;;;;;;;;;;;;;25.01;25.87;100391.38;4384735;32;20047;-74
2022/03/09 11:51:16;;;;;;;;;;;;;;;24.57;25.64;100404.28;4394568;32;20005;-74
2022/03/09 11:53:44;;;;;;;;;;;;;;;24.59;25.88;100378.63;4383944;32;20005;-74
2022/03/09 11:56:29;;;;;;;;;;;;;;;24.24;26.41;100386.69;4396292;32;20484;-74
2022/03/09 11:59:12;;;;;;;;;;;;;;;23.10;27.59;100379.44;4378855;32;20398;-74
2022/03/09 12:01:58;;;;;;;;;;;;;;;22.25;28.81;100370.28;4393560;32;20930;-72
2022/03/09 12:04:48;;;;;;;;;;;;;;;22.34;28.99;100375.72;4385233;32;19986;-74
2022/03/09 12:07:34;;;;;;;;;;;;;;;23.18;27.98;100395.56;4397322;32;20946;-74
2022/03/09 12:10:03;;;;;;;;;;;;;;;24.13;26.96;100381.84;4395986;32;20352;-74
2022/03/09 12:12:30;;;;;;;;;;;;;;;24.15;26.85;100393.59;4396553;32;19998;-73
2022/03/09 12:17:44;;;;;;;;;;;;;;;25.23;25.82;100379.50;3948300;32;15724082;-73
2022/03/09 12:20:30;;;;;;;;;;;;;;;25.15;25.79;100388.00;4429052;32;20005;-73
2022/03/09 12:28:31;;;;;;;;;;;;;;;24.39;26.10;100387.00;3941955;32;15722510;-73
2022/03/09 12:33:38;;;;;;;;;;;;;;;24.38;26.63;100382.56;3939119;32;15726483;-74
2022/03/09 12:38:40;;;;;;;;;;;;;;;23.96;27.07;100389.87;3930793;32;15723519;-73
2022/03/09 12:41:22;;;;;;;;;;;;;;;23.12;27.64;100399.78;4403670;32;20084;-73
2022/03/09 12:43:48;;;;;;;;;;;;;;;23.31;27.82;100392.84;4390778;32;20043;-73
2022/03/09 12:46:14;;;;;;;;;;;;;;;22.81;28.53;100392.44;4404438;32;20009;-73
2022/03/09 12:48:39;;;;;;;;;;;;;;;23.19;28.10;100414.31;4403895;32;20125;-75
2022/03/09 12:51:05;;;;;;;;;;;;;;;22.54;28.17;100412.66;4404008;32;19997;-73
2022/03/09 12:53:32;;;;;;;;;;;;;;;22.57;28.17;100398.06;4404637;32;20229;-73
2022/03/09 12:56:12;;;;;;;;;;;;;;;21.99;29.06;100392.81;4404669;32;20609;-73
2022/03/09 12:58:39;;;;;;;;;;;;;;;22.02;29.21;100389.66;4404203;32;20543;-73
2022/03/09 13:01:05;;;;;;;;;;;;;;;22.55;28.75;100385.56;4398449;32;19993;-73
2022/03/09 13:03:31;;;;;;;;;;;;;;;23.19;27.85;100394.22;4401461;32;20064;-73
2022/03/09 13:05:56;;;;;;;;;;;;;;;23.50;27.13;100387.19;4405722;32;20016;-73